• Join FlightAware (Why Join?)
  • Login
  • US Flag 
04:01PM EDT


 

Airport Tracker/Info


-or-


 

Live Flight TrackerFlight Track Log ✈ N631TS ✈ 13-Feb-2014 ✈ KSTC - KMKE

Flight Track Log - Related Links

Times and Time Zones

All times are in EST time to prevent confusion due to time zone crossing. See the N631TS flight status page for this flight to view local times or setup timezone preferences in your user account.

Time Position Orientation Groundspeed Altitude Reporting Facility
EST Latitude Longitude Course Direction KTS MPH feet Rate Location/Type
04:06PM 45.5872 -93.9731 91° East 225 259 4,400  Level Minneapolis Center
04:07PM 45.5428 -93.8942 129° Southeast 258 297 7,500 2,640 Climbing Minneapolis Center
04:08PM 45.4786 -93.8206 141° Southeast 303 349 9,900 2,700 Climbing Minneapolis Center
04:09PM 45.4011 -93.7286 140° Southeast 294 338 13,200 2,640 Climbing Minneapolis Center
04:10PM 45.2996 -93.4130 121° Southeast  Level Estimated
04:10PM 45.3361 -93.6531 141° Southeast 312 359 15,400  Level Minneapolis Center
04:11PM 45.2581 -93.3057 115° Southeast  Level Estimated
04:11PM 45.2831 -93.5517 127° Southeast 322 371 17,600  Level Minneapolis Center
04:12PM 45.2400 -93.4367 118° Southeast 328 377 19,900 1,980 Climbing Minneapolis Center
04:13PM 45.1967 -93.3233 118° Southeast 328 377 21,800 1,800 Climbing Minneapolis Center
04:15PM 45.1536 -93.2103 118° Southeast 325 374 23,600 1,740 Climbing Minneapolis Center
04:16PM 45.1114 -93.0972 118° Southeast 324 373 25,400 1,740 Climbing Minneapolis Center
04:17PM 45.0689 -92.9878 119° Southeast 319 367 27,200 1,560 Climbing Minneapolis Center
04:18PM 45.0192 -92.8558 118° Southeast 316 364 28,600 840 Climbing Minneapolis Center
04:19PM 44.9750 -92.7394 118° Southeast 330 380 29,000 180 Climbing Minneapolis Center
04:20PM 44.9253 -92.6097 118° Southeast 364 419 29,000  Level Minneapolis Center
04:21PM 44.8722 -92.4756 119° Southeast 386 444 29,000  Level Minneapolis Center
04:22PM 44.8181 -92.3369 119° Southeast 398 458 29,000  Level Minneapolis Center
04:23PM 44.7622 -92.1964 119° Southeast 407 468 29,000  Level Minneapolis Center
04:24PM 44.7078 -92.0553 118° Southeast 409 471 29,000  Level Minneapolis Center
04:25PM 44.6519 -91.9175 120° Southeast 408 470 29,000  Level Minneapolis Center
04:26PM 44.5872 -91.7489 118° Southeast 409 471 29,000  Level Minneapolis Center
04:27PM 44.5317 -91.6108 119° Southeast 407 468 29,000  Level Minneapolis Center
04:28PM 44.4764 -91.4747 120° Southeast 405 466 29,000  Level Minneapolis Center
04:29PM 44.4206 -91.3381 120° Southeast 405 466 29,000  Level Minneapolis Center
04:30PM 44.3658 -91.2017 119° Southeast 404 465 29,000  Level Minneapolis Center
04:31PM 44.3081 -91.0597 120° Southeast 404 465 29,000  Level Minneapolis Center
04:32PM 44.2542 -90.9250 119° Southeast 401 461 29,000  Level Minneapolis Center
04:33PM 44.1994 -90.7911 120° Southeast 400 460 29,000  Level Minneapolis Center
04:34PM 44.1331 -90.6317 120° Southeast 398 458 29,000  Level Minneapolis Center
04:35PM 44.0850 -90.5150 120° Southeast 399 459 29,000  Level Minneapolis Center
04:36PM 44.0192 -90.3567 120° Southeast 395 455 29,000  Level Minneapolis Center
04:37PM 43.9628 -90.2267 121° Southeast 394 453 29,000 -420 Level Minneapolis Center
04:38PM 43.9069 -90.0933 120° Southeast 399 459 28,200 -960 Descending Minneapolis Center
04:39PM 43.8475 -89.9531 120° Southeast 417 480 27,100 -1,020 Descending Minneapolis Center
04:40PM 43.7861 -89.8100 121° Southeast 430 495 26,100 -1,140 Descending Minneapolis Center
04:41PM 43.7256 -89.6722 121° Southeast 425 489 24,800 -1,920 Descending Minneapolis Center
04:42PM 43.6567 -89.5128 121° Southeast 412 474 22,200 -2,280 Descending Minneapolis Center
04:43PM 43.6042 -89.3872 120° Southeast 391 450 20,200 -2,220 Descending Minneapolis Center
04:44PM 43.5522 -89.2689 121° Southeast 372 428 17,700 -2,220 Descending Minneapolis Center
04:45PM 43.5028 -89.1539 121° Southeast 358 412 15,700 -1,620 Descending Minneapolis Center
04:46PM 43.4547 -89.0414 120° Southeast 349 402 14,400 -1,200 Descending Minneapolis Center
04:48PM 43.3869 -88.8886 121° Southeast 340 391 12,900 -1,080 Descending Chicago Center
04:49PM 43.3378 -88.7792 122° Southeast 342 394 11,800 -1,200 Descending Chicago Center
04:50PM 43.2814 -88.6506 121° Southeast 334 384 10,500 -900 Descending Chicago Center
04:51PM 43.2347 -88.5483 122° Southeast 324 373 10,000 -300 Descending Chicago Center
04:52PM 43.1903 -88.4469 121° Southeast 319 367 10,000 -600 Level Chicago Center
04:53PM 43.1442 -88.3436 121° Southeast 319 367 8,800 -1,380 Descending Chicago Center
04:54PM 43.1078 -88.2217 112° Southeast 305 351 7,200 -900 Descending Chicago Center
04:55PM 43.1294 -88.1172 74° East 289 333 7,000 -180 Descending Chicago Center
04:56PM 43.1500 -88.0119 75° East 287 330 6,900 -780 Descending Chicago Center
04:57PM 43.1461 -87.9197 93° East 253 291 5,400 -1,440 Descending Chicago Center
04:58PM 43.1108 -87.8594 129° Southeast 239 275 4,000 -1,200 Descending Chicago Center
04:59PM 43.0594 -87.8767 194° South 205 236 2,900 -1,020 Descending Chicago Center
05:00PM 43.0119 -87.8833 186° South 171 197 1,900 -660 Descending Chicago Center
05:01PM 42.9778 -87.8931 192° South 159 183 1,600 -300 Descending Chicago Center